Justine — WDF6361 — position and weather

sailwx.info

Track history (hours):
 
Tides and Currents Weather Stations Pressure Air Temp Water Temp Dewpoint Dewpoint Depression Visibility Wind Speed Wind Dir Waves Ship Positions

Justine

Owner: Dagon Marine, LLC, Secaucus, NJ. More information available from US FCC via Universal Licensing System and Coast Guard Vessel Documentation Center.

Last reported at 2018-Jun-19 00:23 UTC. Time now 2018-Jun-21 18:13 UTC.
Position N 40°45' W 074°01'.

Length 30 m; draft 3 m.

Type: Pleasure craft. MMSI: 368564000.

Date/timePositionNaut miles runAvg speedWind from/ knotsBaromVisibWave heightAir tempDewpointWater temp
2018-Jun-19 00:23N 40°45' W 074°01'3 8.3
2018-Jun-18 23:59N 40°41' W 074°02'2 3.1
2018-Jun-18 23:30N 40°42' W 074°00'2 0.0
2018-Jun-16 21:06N 40°44' W 074°01'1 6.3
2018-Jun-16 20:59N 40°43' W 074°01'2 4.0
2018-Jun-16 20:29N 40°43' W 073°58'2 3.6
2018-Jun-16 20:00N 40°42' W 074°00'1 2.8
2018-Jun-16 19:30N 40°42' W 074°02'2 0.0
2018-Jun-15 02:49N 40°44' W 074°01'3 8.9
2018-Jun-15 02:30N 40°41' W 074°02'3 5.8
2018-Jun-15 02:00N 40°43' W 073°59'2 4.4
2018-Jun-15 01:30N 40°45' W 073°58'4 7.3
2018-Jun-15 01:00N 40°42' W 074°01'3 0.9
2018-Jun-14 21:19N 40°45' W 074°01'1 4.3
2018-Jun-14 21:00N 40°44' W 074°01'3 6.3
2018-Jun-14 20:30N 40°41' W 074°02'4 7.5
2018-Jun-14 20:00N 40°43' W 073°58'2 4.7
2018-Jun-14 19:30N 40°42' W 074°01'3 0.1
2018-Jun-13 18:46N 40°45' W 074°01'1 2.5
2018-Jun-13 18:29N 40°45' W 074°01'3 7.0
2018-Jun-13 18:00N 40°42' W 074°02'2 4.5
2018-Jun-13 17:28N 40°42' W 073°59'3 3.5
2018-Jun-13 16:45N 40°45' W 073°58'2 9.0
2018-Jun-13 16:30N 40°43' W 073°59'2 4.1
2018-Jun-13 16:00N 40°43' W 074°01'1 0.0
2018-Jun-11 22:25N 40°44' W 074°01'3 1.5
2018-Jun-11 20:23N 40°41' W 074°03'  
Track history (hours):
 
Tides and Currents Weather Stations Pressure Air Temp Water Temp Dewpoint Dewpoint Depression Visibility Wind Speed Wind Dir Waves Ship Positions

Justine

Owner: Dagon Marine, LLC, Secaucus, NJ. More information available from US FCC via Universal Licensing System and Coast Guard Vessel Documentation Center.

Last reported at 2018-Jun-19 00:23 UTC. Time now 2018-Jun-21 18:13 UTC.
Position N 40°45' W 074°01'.

Length 30 m; draft 3 m.

Type: Pleasure craft. MMSI: 368564000.

Date/timePositionNaut miles runAvg speedWind from/ knotsBaromVisibWave heightAir tempDewpointWater temp
2018-Jun-19 00:23N 40°45' W 074°01'3 8.3
2018-Jun-18 23:59N 40°41' W 074°02'2 3.1
2018-Jun-18 23:30N 40°42' W 074°00'2 0.0
2018-Jun-16 21:06N 40°44' W 074°01'1 6.3
2018-Jun-16 20:59N 40°43' W 074°01'2 4.0
2018-Jun-16 20:29N 40°43' W 073°58'2 3.6
2018-Jun-16 20:00N 40°42' W 074°00'1 2.8
2018-Jun-16 19:30N 40°42' W 074°02'2 0.0
2018-Jun-15 02:49N 40°44' W 074°01'3 8.9
2018-Jun-15 02:30N 40°41' W 074°02'3 5.8
2018-Jun-15 02:00N 40°43' W 073°59'2 4.4
2018-Jun-15 01:30N 40°45' W 073°58'4 7.3
2018-Jun-15 01:00N 40°42' W 074°01'3 0.9
2018-Jun-14 21:19N 40°45' W 074°01'1 4.3
2018-Jun-14 21:00N 40°44' W 074°01'3 6.3
2018-Jun-14 20:30N 40°41' W 074°02'4 7.5
2018-Jun-14 20:00N 40°43' W 073°58'2 4.7
2018-Jun-14 19:30N 40°42' W 074°01'3 0.1
2018-Jun-13 18:46N 40°45' W 074°01'1 2.5
2018-Jun-13 18:29N 40°45' W 074°01'3 7.0
2018-Jun-13 18:00N 40°42' W 074°02'2 4.5
2018-Jun-13 17:28N 40°42' W 073°59'3 3.5
2018-Jun-13 16:45N 40°45' W 073°58'2 9.0
2018-Jun-13 16:30N 40°43' W 073°59'2 4.1
2018-Jun-13 16:00N 40°43' W 074°01'1 0.0
2018-Jun-11 22:25N 40°44' W 074°01'3 1.5
2018-Jun-11 20:23N 40°41' W 074°03'  

Dump ship's entire track history